sensor_id;sensor_type;location;lat;lon;timestamp;temperature;humidity
913;DHT22;443;51.448;7.028;2022-09-13T00:01:43;20.50;82.20
913;DHT22;443;51.448;7.028;2022-09-13T00:04:11;20.50;82.20
913;DHT22;443;51.448;7.028;2022-09-13T00:06:38;20.50;82.80
913;DHT22;443;51.448;7.028;2022-09-13T00:09:05;20.50;82.10
913;DHT22;443;51.448;7.028;2022-09-13T00:11:32;20.50;82.30
913;DHT22;443;51.448;7.028;2022-09-13T00:13:58;20.50;82.30
913;DHT22;443;51.448;7.028;2022-09-13T00:16:27;20.50;82.30
913;DHT22;443;51.448;7.028;2022-09-13T00:18:55;20.50;82.20
913;DHT22;443;51.448;7.028;2022-09-13T00:21:23;20.50;82.10
913;DHT22;443;51.448;7.028;2022-09-13T00:23:52;20.50;82.10
913;DHT22;443;51.448;7.028;2022-09-13T00:26:20;20.50;82.10
913;DHT22;443;51.448;7.028;2022-09-13T00:28:48;20.50;82.20
913;DHT22;443;51.448;7.028;2022-09-13T00:31:16;20.50;82.20
913;DHT22;443;51.448;7.028;2022-09-13T00:33:43;20.40;82.20
913;DHT22;443;51.448;7.028;2022-09-13T00:36:11;20.50;82.10
913;DHT22;443;51.448;7.028;2022-09-13T00:38:42;20.50;81.90
913;DHT22;443;51.448;7.028;2022-09-13T00:41:11;20.50;81.90
913;DHT22;443;51.448;7.028;2022-09-13T00:43:44;20.50;81.90
913;DHT22;443;51.448;7.028;2022-09-13T00:46:15;20.50;82.20
913;DHT22;443;51.448;7.028;2022-09-13T00:48:44;20.50;81.80
913;DHT22;443;51.448;7.028;2022-09-13T00:51:12;20.50;81.70
913;DHT22;443;51.448;7.028;2022-09-13T00:53:43;20.50;82.10
913;DHT22;443;51.448;7.028;2022-09-13T00:56:15;20.50;82.10
913;DHT22;443;51.448;7.028;2022-09-13T00:58:46;20.50;81.90
913;DHT22;443;51.448;7.028;2022-09-13T01:01:14;20.50;81.90
913;DHT22;443;51.448;7.028;2022-09-13T01:03:43;20.50;82.10
913;DHT22;443;51.448;7.028;2022-09-13T01:06:14;20.50;81.70
913;DHT22;443;51.448;7.028;2022-09-13T01:08:45;20.50;82.20
913;DHT22;443;51.448;7.028;2022-09-13T01:11:28;20.50;81.70
913;DHT22;443;51.448;7.028;2022-09-13T01:13:57;20.50;82.30
913;DHT22;443;51.448;7.028;2022-09-13T01:16:24;20.50;82.20
913;DHT22;443;51.448;7.028;2022-09-13T01:18:51;20.50;81.90
913;DHT22;443;51.448;7.028;2022-09-13T01:24:57;20.50;82.00
913;DHT22;443;51.448;7.028;2022-09-13T01:27:40;20.50;82.10
913;DHT22;443;51.448;7.028;2022-09-13T01:30:18;20.50;81.80
913;DHT22;443;51.448;7.028;2022-09-13T01:33:20;20.50;82.80
913;DHT22;443;51.448;7.028;2022-09-13T01:36:00;20.50;81.70
913;DHT22;443;51.448;7.028;2022-09-13T01:38:41;20.50;82.00
913;DHT22;443;51.448;7.028;2022-09-13T01:41:25;20.50;82.00
913;DHT22;443;51.448;7.028;2022-09-13T01:43:57;20.50;81.90
913;DHT22;443;51.448;7.028;2022-09-13T01:46:36;20.50;82.10
913;DHT22;443;51.448;7.028;2022-09-13T01:49:13;20.50;82.00
913;DHT22;443;51.448;7.028;2022-09-13T01:51:46;20.50;81.70
913;DHT22;443;51.448;7.028;2022-09-13T01:54:19;20.50;81.60
913;DHT22;443;51.448;7.028;2022-09-13T01:56:54;20.40;81.60
913;DHT22;443;51.448;7.028;2022-09-13T01:59:29;20.50;81.80
913;DHT22;443;51.448;7.028;2022-09-13T02:02:02;20.50;81.50
913;DHT22;443;51.448;7.028;2022-09-13T02:04:35;20.50;81.90
913;DHT22;443;51.448;7.028;2022-09-13T02:07:06;20.50;81.60
913;DHT22;443;51.448;7.028;2022-09-13T02:09:37;20.50;82.10
913;DHT22;443;51.448;7.028;2022-09-13T02:12:08;20.40;81.90
913;DHT22;443;51.448;7.028;2022-09-13T02:14:38;20.40;81.80
913;DHT22;443;51.448;7.028;2022-09-13T02:17:10;20.40;81.90
913;DHT22;443;51.448;7.028;2022-09-13T02:19:42;20.40;82.00
913;DHT22;443;51.448;7.028;2022-09-13T02:22:12;20.50;82.00
913;DHT22;443;51.448;7.028;2022-09-13T02:24:43;20.50;82.10
913;DHT22;443;51.448;7.028;2022-09-13T02:27:14;20.40;81.90
913;DHT22;443;51.448;7.028;2022-09-13T02:29:44;20.40;81.90
913;DHT22;443;51.448;7.028;2022-09-13T02:32:17;20.50;81.80
913;DHT22;443;51.448;7.028;2022-09-13T02:34:51;20.50;82.10
913;DHT22;443;51.448;7.028;2022-09-13T02:37:18;20.40;81.60
913;DHT22;443;51.448;7.028;2022-09-13T02:39:49;20.40;81.60
913;DHT22;443;51.448;7.028;2022-09-13T02:42:22;20.40;80.60
913;DHT22;443;51.448;7.028;2022-09-13T02:44:52;20.40;81.30
913;DHT22;443;51.448;7.028;2022-09-13T02:47:32;20.40;81.60
913;DHT22;443;51.448;7.028;2022-09-13T02:50:09;20.40;81.30
913;DHT22;443;51.448;7.028;2022-09-13T02:52:46;20.40;81.90
913;DHT22;443;51.448;7.028;2022-09-13T02:55:18;20.40;82.00
913;DHT22;443;51.448;7.028;2022-09-13T02:57:55;20.40;81.90
913;DHT22;443;51.448;7.028;2022-09-13T03:00:25;20.40;81.70
913;DHT22;443;51.448;7.028;2022-09-13T03:02:55;20.40;81.50
913;DHT22;443;51.448;7.028;2022-09-13T03:05:24;20.40;81.80
913;DHT22;443;51.448;7.028;2022-09-13T03:07:51;20.40;81.50
913;DHT22;443;51.448;7.028;2022-09-13T03:10:19;20.40;81.90
913;DHT22;443;51.448;7.028;2022-09-13T03:13:10;20.40;81.30
913;DHT22;443;51.448;7.028;2022-09-13T03:15:52;20.40;81.60
913;DHT22;443;51.448;7.028;2022-09-13T03:18:43;20.40;81.80
913;DHT22;443;51.448;7.028;2022-09-13T03:21:23;20.40;81.30
913;DHT22;443;51.448;7.028;2022-09-13T03:24:02;20.40;81.90
913;DHT22;443;51.448;7.028;2022-09-13T03:26:43;20.40;81.50
913;DHT22;443;51.448;7.028;2022-09-13T03:29:24;20.40;81.40
913;DHT22;443;51.448;7.028;2022-09-13T03:31:59;20.40;81.50
913;DHT22;443;51.448;7.028;2022-09-13T03:34:34;20.40;82.10
913;DHT22;443;51.448;7.028;2022-09-13T03:37:06;20.40;81.70
913;DHT22;443;51.448;7.028;2022-09-13T03:39:38;20.40;81.60
913;DHT22;443;51.448;7.028;2022-09-13T03:42:21;20.40;82.00
913;DHT22;443;51.448;7.028;2022-09-13T03:44:50;20.40;81.60
913;DHT22;443;51.448;7.028;2022-09-13T03:47:20;20.40;81.40
913;DHT22;443;51.448;7.028;2022-09-13T03:49:50;20.40;81.80
913;DHT22;443;51.448;7.028;2022-09-13T03:52:17;20.40;81.70
913;DHT22;443;51.448;7.028;2022-09-13T03:54:44;20.40;81.30
913;DHT22;443;51.448;7.028;2022-09-13T03:57:13;20.40;81.60
913;DHT22;443;51.448;7.028;2022-09-13T03:59:45;20.40;81.40
913;DHT22;443;51.448;7.028;2022-09-13T04:02:13;20.40;81.30
913;DHT22;443;51.448;7.028;2022-09-13T04:04:40;20.40;81.60
913;DHT22;443;51.448;7.028;2022-09-13T04:07:10;20.40;81.70
913;DHT22;443;51.448;7.028;2022-09-13T04:09:37;20.40;81.50
913;DHT22;443;51.448;7.028;2022-09-13T04:12:04;20.40;81.60
913;DHT22;443;51.448;7.028;2022-09-13T04:14:31;20.40;81.80
913;DHT22;443;51.448;7.028;2022-09-13T04:16:58;20.40;81.70
913;DHT22;443;51.448;7.028;2022-09-13T04:19:25;20.40;81.50
913;DHT22;443;51.448;7.028;2022-09-13T04:21:53;20.40;81.90
913;DHT22;443;51.448;7.028;2022-09-13T04:24:24;20.40;81.90
913;DHT22;443;51.448;7.028;2022-09-13T04:26:51;20.40;81.40
913;DHT22;443;51.448;7.028;2022-09-13T04:29:19;20.40;81.60
913;DHT22;443;51.448;7.028;2022-09-13T04:31:48;20.40;82.40
913;DHT22;443;51.448;7.028;2022-09-13T04:34:16;20.40;82.30
913;DHT22;443;51.448;7.028;2022-09-13T04:36:43;20.40;82.10
913;DHT22;443;51.448;7.028;2022-09-13T04:39:10;20.40;81.90
913;DHT22;443;51.448;7.028;2022-09-13T04:41:39;20.40;82.30
913;DHT22;443;51.448;7.028;2022-09-13T04:44:08;20.30;81.40
913;DHT22;443;51.448;7.028;2022-09-13T04:46:35;20.30;82.30
913;DHT22;443;51.448;7.028;2022-09-13T04:49:02;20.40;82.00
913;DHT22;443;51.448;7.028;2022-09-13T04:51:29;20.30;80.60
913;DHT22;443;51.448;7.028;2022-09-13T04:53:56;20.40;82.00
913;DHT22;443;51.448;7.028;2022-09-13T04:56:23;20.30;81.10
913;DHT22;443;51.448;7.028;2022-09-13T04:58:52;20.40;82.50
913;DHT22;443;51.448;7.028;2022-09-13T05:01:20;20.30;81.60
913;DHT22;443;51.448;7.028;2022-09-13T05:03:47;20.30;80.70
913;DHT22;443;51.448;7.028;2022-09-13T05:06:18;20.30;82.30
913;DHT22;443;51.448;7.028;2022-09-13T05:08:49;20.30;81.50
913;DHT22;443;51.448;7.028;2022-09-13T05:11:17;20.40;82.30
913;DHT22;443;51.448;7.028;2022-09-13T05:13:48;20.30;82.20
913;DHT22;443;51.448;7.028;2022-09-13T05:16:18;20.30;81.60
913;DHT22;443;51.448;7.028;2022-09-13T05:18:45;20.40;83.30
913;DHT22;443;51.448;7.028;2022-09-13T05:21:12;20.30;82.30
913;DHT22;443;51.448;7.028;2022-09-13T05:23:39;20.30;82.60
913;DHT22;443;51.448;7.028;2022-09-13T05:26:06;20.30;81.70
913;DHT22;443;51.448;7.028;2022-09-13T05:28:34;20.30;82.60
913;DHT22;443;51.448;7.028;2022-09-13T05:31:03;20.30;81.60
913;DHT22;443;51.448;7.028;2022-09-13T05:33:34;20.30;81.90
913;DHT22;443;51.448;7.028;2022-09-13T05:36:01;20.30;82.30
913;DHT22;443;51.448;7.028;2022-09-13T05:38:28;20.30;82.30
913;DHT22;443;51.448;7.028;2022-09-13T05:40:56;20.30;82.60
913;DHT22;443;51.448;7.028;2022-09-13T05:43:24;20.30;82.40
913;DHT22;443;51.448;7.028;2022-09-13T05:45:51;20.30;82.50
913;DHT22;443;51.448;7.028;2022-09-13T05:48:25;20.30;82.00
913;DHT22;443;51.448;7.028;2022-09-13T05:50:53;20.30;82.20
913;DHT22;443;51.448;7.028;2022-09-13T05:53:20;20.30;81.70
913;DHT22;443;51.448;7.028;2022-09-13T05:55:47;20.30;81.80
913;DHT22;443;51.448;7.028;2022-09-13T05:58:14;20.40;80.80
913;DHT22;443;51.448;7.028;2022-09-13T06:00:41;20.40;81.60
913;DHT22;443;51.448;7.028;2022-09-13T06:03:07;20.30;81.70
913;DHT22;443;51.448;7.028;2022-09-13T06:05:34;20.30;81.70
913;DHT22;443;51.448;7.028;2022-09-13T06:08:03;20.30;81.70
913;DHT22;443;51.448;7.028;2022-09-13T06:10:29;20.40;81.60
913;DHT22;443;51.448;7.028;2022-09-13T06:12:56;20.40;81.70
913;DHT22;443;51.448;7.028;2022-09-13T06:15:23;20.30;80.50
913;DHT22;443;51.448;7.028;2022-09-13T06:17:50;20.30;80.50
913;DHT22;443;51.448;7.028;2022-09-13T06:20:16;20.40;81.20
913;DHT22;443;51.448;7.028;2022-09-13T06:22:43;20.40;81.70
913;DHT22;443;51.448;7.028;2022-09-13T06:25:11;20.30;81.50
913;DHT22;443;51.448;7.028;2022-09-13T06:27:38;20.30;81.70
913;DHT22;443;51.448;7.028;2022-09-13T06:30:06;20.40;81.80
913;DHT22;443;51.448;7.028;2022-09-13T06:32:33;20.40;81.90
913;DHT22;443;51.448;7.028;2022-09-13T06:35:00;20.40;81.10
913;DHT22;443;51.448;7.028;2022-09-13T06:37:27;20.40;81.10
913;DHT22;443;51.448;7.028;2022-09-13T06:39:53;20.40;81.30
913;DHT22;443;51.448;7.028;2022-09-13T06:42:22;20.40;81.90
913;DHT22;443;51.448;7.028;2022-09-13T06:44:49;20.40;81.00
913;DHT22;443;51.448;7.028;2022-09-13T06:47:15;20.40;82.00
913;DHT22;443;51.448;7.028;2022-09-13T06:49:42;20.40;81.80
913;DHT22;443;51.448;7.028;2022-09-13T06:52:09;20.40;81.60
913;DHT22;443;51.448;7.028;2022-09-13T06:54:36;20.40;82.00
913;DHT22;443;51.448;7.028;2022-09-13T06:57:03;20.40;81.90
913;DHT22;443;51.448;7.028;2022-09-13T06:59:31;20.40;81.60
913;DHT22;443;51.448;7.028;2022-09-13T07:01:59;20.40;81.30
913;DHT22;443;51.448;7.028;2022-09-13T07:04:26;20.40;81.90
913;DHT22;443;51.448;7.028;2022-09-13T07:06:56;20.40;81.90
913;DHT22;443;51.448;7.028;2022-09-13T07:09:24;20.40;81.00
913;DHT22;443;51.448;7.028;2022-09-13T07:11:53;20.40;81.80
913;DHT22;443;51.448;7.028;2022-09-13T07:14:21;20.40;82.00
913;DHT22;443;51.448;7.028;2022-09-13T07:16:50;20.40;81.60
913;DHT22;443;51.448;7.028;2022-09-13T07:19:19;20.40;81.30
913;DHT22;443;51.448;7.028;2022-09-13T07:21:47;20.40;81.70
913;DHT22;443;51.448;7.028;2022-09-13T07:24:15;20.40;80.60
913;DHT22;443;51.448;7.028;2022-09-13T07:26:43;20.40;81.70
913;DHT22;443;51.448;7.028;2022-09-13T07:29:12;20.40;82.00
913;DHT22;443;51.448;7.028;2022-09-13T07:31:41;20.40;81.90
913;DHT22;443;51.448;7.028;2022-09-13T07:34:12;20.40;81.90
913;DHT22;443;51.448;7.028;2022-09-13T07:36:40;20.40;81.70
913;DHT22;443;51.448;7.028;2022-09-13T07:39:07;20.40;82.20
913;DHT22;443;51.448;7.028;2022-09-13T07:41:34;20.40;82.00
913;DHT22;443;51.448;7.028;2022-09-13T07:44:02;20.40;81.80
913;DHT22;443;51.448;7.028;2022-09-13T07:46:30;20.40;81.90
913;DHT22;443;51.448;7.028;2022-09-13T07:48:59;20.40;82.00
913;DHT22;443;51.448;7.028;2022-09-13T07:51:28;20.40;81.90
913;DHT22;443;51.448;7.028;2022-09-13T07:53:57;20.40;82.00
913;DHT22;443;51.448;7.028;2022-09-13T07:56:25;20.40;81.90
913;DHT22;443;51.448;7.028;2022-09-13T07:58:52;20.40;82.10
913;DHT22;443;51.448;7.028;2022-09-13T08:01:20;20.40;82.10
913;DHT22;443;51.448;7.028;2022-09-13T08:03:50;20.40;82.00
913;DHT22;443;51.448;7.028;2022-09-13T08:06:18;20.40;82.00
913;DHT22;443;51.448;7.028;2022-09-13T08:08:46;20.40;82.20
913;DHT22;443;51.448;7.028;2022-09-13T08:11:16;20.40;82.30
913;DHT22;443;51.448;7.028;2022-09-13T08:13:43;20.40;82.20
913;DHT22;443;51.448;7.028;2022-09-13T08:16:10;20.40;82.20
913;DHT22;443;51.448;7.028;2022-09-13T08:18:41;20.40;82.30
913;DHT22;443;51.448;7.028;2022-09-13T08:21:08;20.40;82.20
913;DHT22;443;51.448;7.028;2022-09-13T08:23:35;20.40;82.00
913;DHT22;443;51.448;7.028;2022-09-13T08:26:03;20.50;82.10
913;DHT22;443;51.448;7.028;2022-09-13T08:28:33;20.50;82.10
913;DHT22;443;51.448;7.028;2022-09-13T08:31:04;20.50;82.00
913;DHT22;443;51.448;7.028;2022-09-13T08:33:31;20.50;82.20
913;DHT22;443;51.448;7.028;2022-09-13T08:35:58;20.50;82.10
913;DHT22;443;51.448;7.028;2022-09-13T08:38:26;20.50;82.00
913;DHT22;443;51.448;7.028;2022-09-13T08:40:55;20.50;82.20
913;DHT22;443;51.448;7.028;2022-09-13T08:43:36;20.50;82.20
913;DHT22;443;51.448;7.028;2022-09-13T08:46:09;20.50;82.20
913;DHT22;443;51.448;7.028;2022-09-13T08:48:41;20.50;82.20
913;DHT22;443;51.448;7.028;2022-09-13T08:51:30;20.50;82.20
913;DHT22;443;51.448;7.028;2022-09-13T08:53:58;20.50;82.30
913;DHT22;443;51.448;7.028;2022-09-13T08:56:31;20.50;82.20
913;DHT22;443;51.448;7.028;2022-09-13T08:59:19;20.50;82.20
913;DHT22;443;51.448;7.028;2022-09-13T09:02:01;20.50;82.20
913;DHT22;443;51.448;7.028;2022-09-13T09:04:38;20.50;82.20
913;DHT22;443;51.448;7.028;2022-09-13T09:07:11;20.50;82.30
913;DHT22;443;51.448;7.028;2022-09-13T09:09:43;20.50;82.30
913;DHT22;443;51.448;7.028;2022-09-13T09:12:16;20.50;82.50
913;DHT22;443;51.448;7.028;2022-09-13T09:14:54;20.50;82.40
913;DHT22;443;51.448;7.028;2022-09-13T09:17:24;20.50;82.30
913;DHT22;443;51.448;7.028;2022-09-13T09:19:57;20.50;82.30
913;DHT22;443;51.448;7.028;2022-09-13T09:22:31;20.50;82.20
913;DHT22;443;51.448;7.028;2022-09-13T09:24:59;20.50;82.20
913;DHT22;443;51.448;7.028;2022-09-13T09:27:30;20.60;82.00
913;DHT22;443;51.448;7.028;2022-09-13T09:30:00;20.50;82.20
913;DHT22;443;51.448;7.028;2022-09-13T09:32:47;20.50;82.10
913;DHT22;443;51.448;7.028;2022-09-13T09:35:25;20.50;82.20
913;DHT22;443;51.448;7.028;2022-09-13T09:38:13;20.50;82.20
913;DHT22;443;51.448;7.028;2022-09-13T09:40:43;20.50;82.10
913;DHT22;443;51.448;7.028;2022-09-13T09:43:14;20.60;82.30
913;DHT22;443;51.448;7.028;2022-09-13T09:45:45;20.60;82.20
913;DHT22;443;51.448;7.028;2022-09-13T09:48:15;20.60;82.00
913;DHT22;443;51.448;7.028;2022-09-13T09:50:48;20.60;82.10
913;DHT22;443;51.448;7.028;2022-09-13T09:53:22;20.60;82.30
913;DHT22;443;51.448;7.028;2022-09-13T09:55:56;20.60;82.20
913;DHT22;443;51.448;7.028;2022-09-13T09:58:36;20.60;82.20
913;DHT22;443;51.448;7.028;2022-09-13T10:01:14;20.60;82.10
913;DHT22;443;51.448;7.028;2022-09-13T10:03:49;20.60;82.10
913;DHT22;443;51.448;7.028;2022-09-13T10:06:19;20.60;82.20
913;DHT22;443;51.448;7.028;2022-09-13T10:08:54;20.60;82.30
913;DHT22;443;51.448;7.028;2022-09-13T10:11:23;20.60;82.10
913;DHT22;443;51.448;7.028;2022-09-13T10:13:59;20.60;82.00
913;DHT22;443;51.448;7.028;2022-09-13T10:16:28;20.60;81.90
913;DHT22;443;51.448;7.028;2022-09-13T10:19:19;20.60;82.00
913;DHT22;443;51.448;7.028;2022-09-13T10:22:02;20.60;82.10
913;DHT22;443;51.448;7.028;2022-09-13T10:24:30;20.60;82.10
913;DHT22;443;51.448;7.028;2022-09-13T10:26:58;20.60;82.10
913;DHT22;443;51.448;7.028;2022-09-13T10:29:26;20.60;82.20
913;DHT22;443;51.448;7.028;2022-09-13T10:31:55;20.60;82.20
913;DHT22;443;51.448;7.028;2022-09-13T10:34:25;20.60;82.20
913;DHT22;443;51.448;7.028;2022-09-13T10:36:56;20.60;82.10
913;DHT22;443;51.448;7.028;2022-09-13T10:39:25;20.60;82.00
913;DHT22;443;51.448;7.028;2022-09-13T10:41:56;20.60;82.00
913;DHT22;443;51.448;7.028;2022-09-13T10:44:31;20.60;82.00
913;DHT22;443;51.448;7.028;2022-09-13T10:47:03;20.60;82.10
913;DHT22;443;51.448;7.028;2022-09-13T10:49:38;20.60;82.10
913;DHT22;443;51.448;7.028;2022-09-13T10:52:24;20.60;82.10
913;DHT22;443;51.448;7.028;2022-09-13T10:54:51;20.60;81.90
913;DHT22;443;51.448;7.028;2022-09-13T10:57:30;20.60;82.00
913;DHT22;443;51.448;7.028;2022-09-13T10:59:57;20.60;82.00
913;DHT22;443;51.448;7.028;2022-09-13T11:02:41;20.70;81.90
913;DHT22;443;51.448;7.028;2022-09-13T11:05:20;20.70;81.80
913;DHT22;443;51.448;7.028;2022-09-13T11:08:00;20.70;81.70
913;DHT22;443;51.448;7.028;2022-09-13T11:10:36;20.70;81.70
913;DHT22;443;51.448;7.028;2022-09-13T11:13:14;20.70;81.70
913;DHT22;443;51.448;7.028;2022-09-13T11:15:51;20.70;81.70
913;DHT22;443;51.448;7.028;2022-09-13T11:21:39;20.70;81.80
913;DHT22;443;51.448;7.028;2022-09-13T11:24:29;20.70;81.90
913;DHT22;443;51.448;7.028;2022-09-13T11:27:01;20.70;82.00
913;DHT22;443;51.448;7.028;2022-09-13T11:29:54;20.60;81.90
913;DHT22;443;51.448;7.028;2022-09-13T11:32:33;20.70;82.00
913;DHT22;443;51.448;7.028;2022-09-13T11:35:18;20.60;81.80
913;DHT22;443;51.448;7.028;2022-09-13T11:37:59;20.70;81.90
913;DHT22;443;51.448;7.028;2022-09-13T11:40:42;20.70;81.90
913;DHT22;443;51.448;7.028;2022-09-13T11:43:21;20.70;81.70
913;DHT22;443;51.448;7.028;2022-09-13T11:45:58;20.70;81.60
913;DHT22;443;51.448;7.028;2022-09-13T11:49:01;20.70;81.70
913;DHT22;443;51.448;7.028;2022-09-13T11:51:37;20.70;81.70
913;DHT22;443;51.448;7.028;2022-09-13T11:54:26;20.80;81.70
913;DHT22;443;51.448;7.028;2022-09-13T11:56:59;20.80;81.30
913;DHT22;443;51.448;7.028;2022-09-13T11:59:36;20.80;81.50
913;DHT22;443;51.448;7.028;2022-09-13T12:02:18;20.80;81.40
913;DHT22;443;51.448;7.028;2022-09-13T12:04:51;20.80;81.60
913;DHT22;443;51.448;7.028;2022-09-13T12:07:28;20.80;81.50
913;DHT22;443;51.448;7.028;2022-09-13T12:10:02;20.80;81.60
913;DHT22;443;51.448;7.028;2022-09-13T12:12:34;20.80;81.60
913;DHT22;443;51.448;7.028;2022-09-13T12:15:05;20.80;81.60
913;DHT22;443;51.448;7.028;2022-09-13T12:17:36;20.80;81.60
913;DHT22;443;51.448;7.028;2022-09-13T12:20:10;20.80;81.70
913;DHT22;443;51.448;7.028;2022-09-13T12:22:39;20.80;81.40
913;DHT22;443;51.448;7.028;2022-09-13T12:25:17;20.80;81.50
913;DHT22;443;51.448;7.028;2022-09-13T12:27:50;20.80;81.60
913;DHT22;443;51.448;7.028;2022-09-13T12:30:20;20.80;81.50
913;DHT22;443;51.448;7.028;2022-09-13T12:32:48;20.80;81.60
913;DHT22;443;51.448;7.028;2022-09-13T12:35:23;20.90;81.50
913;DHT22;443;51.448;7.028;2022-09-13T12:38:13;20.80;81.40
913;DHT22;443;51.448;7.028;2022-09-13T12:41:04;20.80;81.30
913;DHT22;443;51.448;7.028;2022-09-13T12:43:54;20.80;81.40
913;DHT22;443;51.448;7.028;2022-09-13T12:46:42;20.70;81.40
913;DHT22;443;51.448;7.028;2022-09-13T12:49:49;20.70;81.60
913;DHT22;443;51.448;7.028;2022-09-13T12:52:29;20.70;81.60
913;DHT22;443;51.448;7.028;2022-09-13T12:55:19;20.70;81.60
913;DHT22;443;51.448;7.028;2022-09-13T12:57:57;20.70;81.60
913;DHT22;443;51.448;7.028;2022-09-13T13:00:26;20.80;81.80
913;DHT22;443;51.448;7.028;2022-09-13T13:03:12;20.80;81.80
913;DHT22;443;51.448;7.028;2022-09-13T13:05:42;20.80;81.50
913;DHT22;443;51.448;7.028;2022-09-13T13:08:24;20.80;81.70
913;DHT22;443;51.448;7.028;2022-09-13T13:11:00;20.80;81.60
913;DHT22;443;51.448;7.028;2022-09-13T13:13:34;20.80;81.60
913;DHT22;443;51.448;7.028;2022-09-13T13:16:21;20.80;81.50
913;DHT22;443;51.448;7.028;2022-09-13T13:18:49;20.90;81.40
913;DHT22;443;51.448;7.028;2022-09-13T13:21:32;20.90;81.10
913;DHT22;443;51.448;7.028;2022-09-13T13:27:40;20.90;80.70
913;DHT22;443;51.448;7.028;2022-09-13T13:30:41;21.00;80.80
913;DHT22;443;51.448;7.028;2022-09-13T13:33:19;21.00;80.50
913;DHT22;443;51.448;7.028;2022-09-13T13:35:46;21.00;80.70
913;DHT22;443;51.448;7.028;2022-09-13T13:38:29;21.00;80.70
913;DHT22;443;51.448;7.028;2022-09-13T13:41:06;21.00;80.40
913;DHT22;443;51.448;7.028;2022-09-13T13:43:34;21.00;80.40
913;DHT22;443;51.448;7.028;2022-09-13T13:46:33;21.00;80.60
913;DHT22;443;51.448;7.028;2022-09-13T13:49:40;21.00;80.70
913;DHT22;443;51.448;7.028;2022-09-13T13:52:33;21.10;80.60
913;DHT22;443;51.448;7.028;2022-09-13T13:55:04;21.20;80.20
913;DHT22;443;51.448;7.028;2022-09-13T13:57:56;21.20;79.80
913;DHT22;443;51.448;7.028;2022-09-13T14:00:27;21.20;79.70
913;DHT22;443;51.448;7.028;2022-09-13T14:03:08;21.20;79.70
913;DHT22;443;51.448;7.028;2022-09-13T14:05:42;21.30;79.40
913;DHT22;443;51.448;7.028;2022-09-13T14:08:37;21.40;79.40
913;DHT22;443;51.448;7.028;2022-09-13T14:11:19;21.40;79.10
913;DHT22;443;51.448;7.028;2022-09-13T14:14:01;21.50;79.10
913;DHT22;443;51.448;7.028;2022-09-13T14:16:42;21.60;79.40
913;DHT22;443;51.448;7.028;2022-09-13T14:19:21;21.70;78.20
913;DHT22;443;51.448;7.028;2022-09-13T14:22:04;21.70;77.70
913;DHT22;443;51.448;7.028;2022-09-13T14:24:36;21.70;77.80
913;DHT22;443;51.448;7.028;2022-09-13T14:27:04;21.60;78.30
913;DHT22;443;51.448;7.028;2022-09-13T14:29:31;21.50;78.70
913;DHT22;443;51.448;7.028;2022-09-13T14:32:02;21.40;79.10
913;DHT22;443;51.448;7.028;2022-09-13T14:34:33;21.40;78.90
913;DHT22;443;51.448;7.028;2022-09-13T14:37:03;21.50;78.90
913;DHT22;443;51.448;7.028;2022-09-13T14:39:31;21.50;78.70
913;DHT22;443;51.448;7.028;2022-09-13T14:41:59;21.40;78.80
913;DHT22;443;51.448;7.028;2022-09-13T14:44:28;21.40;79.10
913;DHT22;443;51.448;7.028;2022-09-13T14:47:02;21.30;79.10
913;DHT22;443;51.448;7.028;2022-09-13T14:49:37;21.40;79.20
913;DHT22;443;51.448;7.028;2022-09-13T14:52:09;21.40;79.20
913;DHT22;443;51.448;7.028;2022-09-13T14:54:38;21.30;79.10
913;DHT22;443;51.448;7.028;2022-09-13T14:57:08;21.30;79.10
913;DHT22;443;51.448;7.028;2022-09-13T14:59:40;21.30;79.10
913;DHT22;443;51.448;7.028;2022-09-13T15:02:16;21.40;79.20
913;DHT22;443;51.448;7.028;2022-09-13T15:04:51;21.30;79.00
913;DHT22;443;51.448;7.028;2022-09-13T15:07:22;21.30;80.10
913;DHT22;443;51.448;7.028;2022-09-13T15:09:49;21.30;79.20
913;DHT22;443;51.448;7.028;2022-09-13T15:12:23;21.20;79.40
913;DHT22;443;51.448;7.028;2022-09-13T15:15:20;21.20;79.40
913;DHT22;443;51.448;7.028;2022-09-13T15:17:51;21.30;79.40
913;DHT22;443;51.448;7.028;2022-09-13T15:20:20;21.30;79.20
913;DHT22;443;51.448;7.028;2022-09-13T15:22:48;21.40;79.20
913;DHT22;443;51.448;7.028;2022-09-13T15:25:20;21.30;78.90
913;DHT22;443;51.448;7.028;2022-09-13T15:27:49;21.30;79.20
913;DHT22;443;51.448;7.028;2022-09-13T15:30:22;21.20;79.50
913;DHT22;443;51.448;7.028;2022-09-13T15:32:49;21.20;79.40
913;DHT22;443;51.448;7.028;2022-09-13T15:35:34;21.20;79.70
913;DHT22;443;51.448;7.028;2022-09-13T15:38:15;21.20;79.60
913;DHT22;443;51.448;7.028;2022-09-13T15:40:44;21.20;79.80
913;DHT22;443;51.448;7.028;2022-09-13T15:43:11;21.20;79.80
913;DHT22;443;51.448;7.028;2022-09-13T15:45:38;21.20;79.90
913;DHT22;443;51.448;7.028;2022-09-13T15:48:05;21.20;79.80
913;DHT22;443;51.448;7.028;2022-09-13T15:50:33;21.10;79.80
913;DHT22;443;51.448;7.028;2022-09-13T15:53:04;21.10;79.80
913;DHT22;443;51.448;7.028;2022-09-13T15:55:38;21.10;79.90
913;DHT22;443;51.448;7.028;2022-09-13T15:58:05;21.10;80.00
913;DHT22;443;51.448;7.028;2022-09-13T16:00:32;21.10;80.00
913;DHT22;443;51.448;7.028;2022-09-13T16:02:59;21.10;80.00
913;DHT22;443;51.448;7.028;2022-09-13T16:05:25;21.10;80.00
913;DHT22;443;51.448;7.028;2022-09-13T16:07:53;21.10;80.10
913;DHT22;443;51.448;7.028;2022-09-13T16:10:23;21.00;80.10
913;DHT22;443;51.448;7.028;2022-09-13T16:12:50;21.00;80.10
913;DHT22;443;51.448;7.028;2022-09-13T16:15:17;21.00;80.10
913;DHT22;443;51.448;7.028;2022-09-13T16:17:43;21.00;80.90
913;DHT22;443;51.448;7.028;2022-09-13T16:20:12;21.00;80.30
913;DHT22;443;51.448;7.028;2022-09-13T16:22:40;21.00;80.40
913;DHT22;443;51.448;7.028;2022-09-13T16:25:08;21.00;80.50
913;DHT22;443;51.448;7.028;2022-09-13T16:27:36;21.00;80.40
913;DHT22;443;51.448;7.028;2022-09-13T16:30:03;21.00;80.50
913;DHT22;443;51.448;7.028;2022-09-13T16:32:30;21.00;80.60
913;DHT22;443;51.448;7.028;2022-09-13T16:34:57;21.00;80.40
913;DHT22;443;51.448;7.028;2022-09-13T16:37:24;21.00;80.60
913;DHT22;443;51.448;7.028;2022-09-13T16:39:50;21.00;80.80
913;DHT22;443;51.448;7.028;2022-09-13T16:42:19;21.00;80.80
913;DHT22;443;51.448;7.028;2022-09-13T16:44:46;21.00;80.90
913;DHT22;443;51.448;7.028;2022-09-13T16:47:12;21.00;80.70
913;DHT22;443;51.448;7.028;2022-09-13T16:49:39;21.00;80.60
913;DHT22;443;51.448;7.028;2022-09-13T16:52:06;20.90;80.60
913;DHT22;443;51.448;7.028;2022-09-13T16:54:34;20.90;80.50
913;DHT22;443;51.448;7.028;2022-09-13T16:57:02;20.90;80.90
913;DHT22;443;51.448;7.028;2022-09-13T16:59:31;20.90;80.70
913;DHT22;443;51.448;7.028;2022-09-13T17:01:58;20.90;80.80
913;DHT22;443;51.448;7.028;2022-09-13T17:04:25;20.90;80.80
913;DHT22;443;51.448;7.028;2022-09-13T17:06:52;20.90;80.80
913;DHT22;443;51.448;7.028;2022-09-13T17:09:19;20.90;80.80
913;DHT22;443;51.448;7.028;2022-09-13T17:11:48;20.90;81.10
913;DHT22;443;51.448;7.028;2022-09-13T17:14:15;20.90;81.10
913;DHT22;443;51.448;7.028;2022-09-13T17:16:45;20.90;80.70
913;DHT22;443;51.448;7.028;2022-09-13T17:19:14;20.90;80.90